createdAt,value
2019-03-05T00:01:24.864Z,51.3
2019-03-05T00:06:30.441Z,51.4
2019-03-05T00:11:35.645Z,51.3
2019-03-05T00:16:41.158Z,51.3
2019-03-05T00:21:47.305Z,51.3
2019-03-05T00:26:52.545Z,51.3
2019-03-05T00:31:58.245Z,51.3
2019-03-05T00:37:03.993Z,51.3
2019-03-05T00:42:09.500Z,51.3
2019-03-05T00:47:14.869Z,51.4
2019-03-05T00:52:20.897Z,51.3
2019-03-05T00:57:26.050Z,51.2
2019-03-05T01:02:31.871Z,51.3
2019-03-05T01:07:36.313Z,51.3
2019-03-05T01:12:41.729Z,51.3
2019-03-05T01:17:47.349Z,51.2
2019-03-05T01:27:56.979Z,51.4
2019-03-05T01:33:02.357Z,51.5
2019-03-05T01:38:08.474Z,51.6
2019-03-05T01:43:13.836Z,51.7
2019-03-05T01:48:19.339Z,51.7
2019-03-05T01:53:25.173Z,51.6
2019-03-05T01:58:30.553Z,51.7
2019-03-05T02:03:35.853Z,51.6
2019-03-05T02:08:41.273Z,51.6
2019-03-05T02:13:47.387Z,51.7
2019-03-05T02:18:52.612Z,51.6
2019-03-05T02:23:58.260Z,51.6
2019-03-05T02:29:03.929Z,51.6
2019-03-05T02:34:08.995Z,51.6
2019-03-05T02:39:14.578Z,51.5
2019-03-05T02:44:20.032Z,51.6
2019-03-05T02:49:25.448Z,51.6
2019-03-05T02:54:31.380Z,51.6
2019-03-05T02:59:36.881Z,51.7
2019-03-05T03:04:42.401Z,51.7
2019-03-05T03:09:48.062Z,51.7
2019-03-05T03:14:53.620Z,51.7
2019-03-05T03:19:59.088Z,51.7
2019-03-05T03:25:04.922Z,51.8
2019-03-05T03:30:10.731Z,51.8
2019-03-05T03:35:15.950Z,51.9
2019-03-05T03:40:20.851Z,51.9
2019-03-05T03:45:26.608Z,51.9
2019-03-05T03:50:31.695Z,51.9
2019-03-05T03:55:38.151Z,51.8
2019-03-05T04:00:43.693Z,51.9
2019-03-05T04:05:49.041Z,51.9
2019-03-05T04:10:54.411Z,51.9
2019-03-05T04:15:59.001Z,51.9
2019-03-05T04:21:04.668Z,51.9
2019-03-05T04:26:09.774Z,51.9
2019-03-05T04:31:14.774Z,51.9
2019-03-05T04:36:20.475Z,51.8
2019-03-05T04:41:24.729Z,51.8
2019-03-05T04:46:29.789Z,51.8
2019-03-05T04:51:34.857Z,51.7
2019-03-05T05:06:49.852Z,51.6
2019-03-05T05:11:55.534Z,51.4
2019-03-05T05:17:00.860Z,51.3
2019-03-05T05:22:06.476Z,51.3
2019-03-05T05:27:12.276Z,51.3
2019-03-05T05:32:17.187Z,51.3
2019-03-05T05:37:22.327Z,51.1
2019-03-05T05:42:28.318Z,51.1
2019-03-05T05:47:33.954Z,50.9
2019-03-05T05:52:38.959Z,51.1
2019-03-05T05:57:44.378Z,51.3
2019-03-05T06:02:50.377Z,51.2
2019-03-05T06:07:56.179Z,51.3
2019-03-05T06:13:02.323Z,51.6
2019-03-05T06:18:07.986Z,51.6
2019-03-05T06:23:13.119Z,51.6
2019-03-05T06:28:18.284Z,51.7
2019-03-05T06:33:23.531Z,51.9
2019-03-05T06:38:29.569Z,52.1
2019-03-05T06:43:35.409Z,51.9
2019-03-05T06:48:41.235Z,52
2019-03-05T06:53:47.065Z,51.4
2019-03-05T06:58:52.177Z,50.9
2019-03-05T07:03:57.619Z,49.8
2019-03-05T07:09:03.738Z,48.9
2019-03-05T07:14:09.225Z,48
2019-03-05T07:19:14.453Z,47.4
2019-03-05T07:24:19.423Z,46.8
2019-03-05T07:29:25.060Z,46
2019-03-05T07:34:28.780Z,46.1
2019-03-05T07:39:34.213Z,46.6
2019-03-05T07:44:39.444Z,46.8
2019-03-05T07:54:52.160Z,47.3
2019-03-05T07:59:58.608Z,47.5
2019-03-05T08:05:04.587Z,47.9
2019-03-05T08:10:10.043Z,48.1
2019-03-05T08:15:15.698Z,48.5
2019-03-05T08:25:24.569Z,48.3
2019-03-05T08:30:30.617Z,48.3
2019-03-05T08:35:36.425Z,48.2
2019-03-05T08:40:40.710Z,48.3
2019-03-05T08:45:46.542Z,48.2
2019-03-05T08:50:52.163Z,48.5
2019-03-05T08:55:57.428Z,49
2019-03-05T09:01:03.239Z,48.9
2019-03-05T09:11:13.853Z,49.1
2019-03-05T09:16:19.797Z,49.2
2019-03-05T09:21:25.611Z,49.2
2019-03-05T09:26:31.088Z,49.3
2019-03-05T09:31:36.960Z,49.4
2019-03-05T09:36:53.736Z,49.5
2019-03-05T09:41:49.824Z,49.5
2019-03-05T09:46:54.880Z,49.5
2019-03-05T09:52:00.816Z,49.4
2019-03-05T09:57:13.634Z,49.6
2019-03-05T10:02:09.144Z,49.6
2019-03-05T10:07:21.666Z,48.5
2019-03-05T10:12:16.621Z,48.4
2019-03-05T10:17:22.379Z,46.4
2019-03-05T10:22:28.255Z,44.4
2019-03-05T10:27:34.221Z,43.1
2019-03-05T10:32:38.842Z,43.4
2019-03-05T10:37:44.374Z,41.7
2019-03-05T10:42:50.347Z,41.7
2019-03-05T10:47:55.330Z,41.7
2019-03-05T10:53:00.589Z,40.3
2019-03-05T10:58:06.110Z,40.4
2019-03-05T11:08:16.380Z,40
2019-03-05T11:13:21.752Z,39.3
2019-03-05T11:18:32.311Z,39.5
2019-03-05T11:23:27.314Z,39.5
2019-03-05T11:33:36.571Z,40.7
2019-03-05T11:38:42.722Z,40.9
2019-03-05T11:43:48.369Z,41.7
2019-03-05T11:48:52.454Z,41.8
2019-03-05T11:53:57.632Z,42
2019-03-05T11:59:02.719Z,42.2
2019-03-05T12:04:07.875Z,42.5
2019-03-05T12:09:12.711Z,42.7
2019-03-05T12:19:22.840Z,43
2019-03-05T12:24:28.198Z,43.1
2019-03-05T12:29:34.101Z,43.2
2019-03-05T12:34:39.145Z,43.4
2019-03-05T12:39:44.803Z,43.5
2019-03-05T12:44:48.878Z,43.6
2019-03-05T12:49:54.487Z,43.7
2019-03-05T12:55:00.312Z,43.8
2019-03-05T13:00:05.880Z,43.8
2019-03-05T13:05:11.779Z,43.8
2019-03-05T13:10:16.896Z,43.9
2019-03-05T13:15:22.280Z,44
2019-03-05T13:20:29.628Z,44.1
2019-03-05T13:25:38.106Z,44.1
2019-03-05T13:30:43.262Z,44.8
2019-03-05T13:35:48.385Z,44.2
2019-03-05T13:40:53.549Z,44.4
2019-03-05T13:46:00.145Z,45.2
2019-03-05T13:51:06.129Z,45.2
2019-03-05T13:56:14.585Z,45.7
2019-03-05T14:11:28.992Z,46
2019-03-05T14:16:34.445Z,46.2
2019-03-05T14:21:39.523Z,46.1
2019-03-05T14:26:45.786Z,46.1
2019-03-05T14:31:51.461Z,46.1
2019-03-05T14:36:57.136Z,46.1
2019-03-05T14:42:03.103Z,46.1
2019-03-05T14:47:09.620Z,46
2019-03-05T14:52:14.757Z,46.6
2019-03-05T14:57:23.273Z,46.9
2019-03-05T15:02:28.872Z,46.8
2019-03-05T15:07:34.726Z,46.9
2019-03-05T15:12:40.210Z,46.9
2019-03-05T15:17:45.692Z,46.7
2019-03-05T15:22:51.566Z,46.6
2019-03-05T15:27:57.258Z,46.6
2019-03-05T15:33:02.584Z,46.3
2019-03-05T15:38:07.985Z,46.4
2019-03-05T15:43:13.607Z,46.3
2019-03-05T15:48:14.192Z,46.1
2019-03-05T15:53:20.244Z,46.2
2019-03-05T15:58:26.321Z,46.2
2019-03-05T16:03:32.151Z,46.1
2019-03-05T16:08:37.565Z,46.1
2019-03-05T16:13:43.262Z,46.1
2019-03-05T16:18:49.285Z,46.1
2019-03-05T16:23:54.657Z,46.2
2019-03-05T16:29:00.821Z,46
2019-03-05T16:34:13.051Z,46
2019-03-05T16:39:10.471Z,45.8
2019-03-05T16:44:16.262Z,45.8
2019-03-05T16:49:21.146Z,46.1
2019-03-05T16:54:27.021Z,46.4
2019-03-05T16:59:32.803Z,46.4
2019-03-05T17:04:38.794Z,46.6
2019-03-05T17:14:48.005Z,47.7
2019-03-05T17:19:53.473Z,48
2019-03-05T17:24:59.144Z,47.7
2019-03-05T17:30:08.651Z,48.1
2019-03-05T17:35:13.517Z,49
2019-03-05T17:40:19.504Z,49.1
2019-03-05T17:45:25.681Z,47.9
2019-03-05T17:50:31.148Z,47.9
2019-03-05T17:55:36.978Z,46.9
2019-03-05T18:00:42.943Z,47
2019-03-05T18:05:48.636Z,46.6
2019-03-05T18:10:54.001Z,47.4
2019-03-05T18:15:59.678Z,47.3
2019-03-05T18:21:06.191Z,47.7
2019-03-05T18:26:11.638Z,47.7
2019-03-05T18:31:17.902Z,48.4
2019-03-05T18:36:23.727Z,48.5
2019-03-05T18:41:29.851Z,48.3
2019-03-05T18:46:35.290Z,48.1
2019-03-05T18:56:45.842Z,48.3
2019-03-05T19:01:51.300Z,48.3
2019-03-05T19:06:58.914Z,31.7
2019-03-05T19:12:04.800Z,31.7
2019-03-05T19:17:10.524Z,34.3
2019-03-05T19:22:15.725Z,36.6
2019-03-05T19:27:28.684Z,38.9
2019-03-05T19:32:25.009Z,39.3
2019-03-05T19:37:31.141Z,39.3
2019-03-05T19:42:37.250Z,42.4
2019-03-05T19:47:42.608Z,42.5
2019-03-05T19:52:48.898Z,43.6
2019-03-05T20:02:53.529Z,45.2
2019-03-05T20:07:59.473Z,45.3
2019-03-05T20:13:05.597Z,45.8
2019-03-05T20:18:11.727Z,46.1
2019-03-05T20:23:17.075Z,46.1
2019-03-05T20:28:22.327Z,46.3
2019-03-05T20:33:30.367Z,46.5
2019-03-05T20:38:35.938Z,46.8
2019-03-05T20:43:41.453Z,47.1
2019-03-05T20:48:47.030Z,47
2019-03-05T20:53:52.641Z,47
2019-03-05T20:58:58.960Z,47.4
2019-03-05T21:04:04.255Z,47.3
2019-03-05T21:09:09.504Z,47.9
2019-03-05T21:14:15.463Z,48
2019-03-05T21:19:21.275Z,48.3
2019-03-05T21:24:26.940Z,48.6
2019-03-05T21:29:32.622Z,49.6
2019-03-05T21:34:38.611Z,49.8
2019-03-05T21:39:43.811Z,50.1
2019-03-05T21:44:49.595Z,50.2
2019-03-05T21:49:55.635Z,50.4
2019-03-05T21:55:01.750Z,50.4
2019-03-05T22:00:07.532Z,50.4
2019-03-05T22:05:12.710Z,50.6
2019-03-05T22:10:17.974Z,50.6
2019-03-05T22:15:23.292Z,50.8
2019-03-05T22:20:27.815Z,50.7
2019-03-05T22:30:37.897Z,50.8
2019-03-05T22:35:43.683Z,50.8
2019-03-05T22:40:50.770Z,50.8
2019-03-05T22:45:56.815Z,50.8
2019-03-05T22:51:02.425Z,50.7
2019-03-05T22:56:08.308Z,50.7
2019-03-05T23:01:13.608Z,50.8
2019-03-05T23:06:19.667Z,50.8
2019-03-05T23:11:25.397Z,50.7
2019-03-05T23:16:31.681Z,50.7
2019-03-05T23:21:38.793Z,50.7
2019-03-05T23:26:44.742Z,50.6
2019-03-05T23:31:49.833Z,50.6
2019-03-05T23:36:55.053Z,50.6
2019-03-05T23:47:05.840Z,50.7
2019-03-05T23:52:11.651Z,50.4
2019-03-05T23:57:17.025Z,50.3
